Change the Weather History Date:

Friday, May 16, 2014

  Actual Average Record
Temperature  
Mean Temperature 35 °F -  
Max Temperature 44 °F 55 °F 71 °F (2001)
Min Temperature 26 °F 36 °F 26 °F (2014)
Degree Days  
Heating Degree Days 30    
Moisture  
Dew Point 19 °F    
Average Humidity 53    
Maximum Humidity 86    
Minimum Humidity 31    
Precipitation  
Precipitation 0.00 in - - ()
Sea Level Pressure  
Sea Level Pressure 29.99 in    
Wind  
Wind Speed 4 mph (WNW)    
Max Wind Speed 12 mph    
Max Gust Speed 16 mph    
Visibility 10 miles    
Events      
Averages and records for this station are not official NWS values.
T = Trace of Precipitation, MM = Missing Value Source: NWS Daily Summary

Daily Weather History Graph

Daily Weather History Graph

Search for Another Location

Airport or City:

Trip Planner

Search our weather history database for the weather conditions in past years. The results will help you decide how hot, cold, wet, or windy it might be!

Date:

Astronomy

May. 16, 2014 Rise Set
Actual Time 5:22 AM CDT 8:34 PM CDT
Civil Twilight 4:45 AM CDT 9:11 PM CDT
Nautical Twilight 3:56 AM CDT 10:00 PM CDT
Astronomical Twilight 2:56 AM CDT 11:01 PM CDT
Moon 10:41 PM CDT (5/16) 7:04 AM CDT (5/16)
Length of Visible Light 16h 26m
Length of Day
15h 12m
Waning Gibbous, 95% of the Moon is Illuminated
May 16
Waning Gibbous
May 21
Last Quarter
May 28
New
Jun 5
First Quarter
Jun 12
Full

Hourly Weather History & Observations

Time (CDT) Temp. Windchill Dew Point Humidity Pressure Visibility Wind Dir Wind Speed Gust Speed Precip Events Conditions
12:14 AM 28.4 °F - 21.2 °F 74% 30.05 in 10.0 mi Calm Calm - N/A   Scattered Clouds
12:33 AM 28.4 °F - 21.2 °F 74% 30.04 in 10.0 mi Calm Calm - N/A   Scattered Clouds
12:54 AM 28.4 °F - 23.0 °F 80% 30.04 in 10.0 mi Calm Calm - N/A   Scattered Clouds
1:13 AM 28.4 °F - 23.0 °F 80% 30.03 in 10.0 mi Calm Calm - N/A   Scattered Clouds
1:33 AM 28.4 °F 24.6 °F 21.2 °F 74% 30.03 in 10.0 mi WNW 3.5 mph - N/A   Mostly Cloudy
1:54 AM 26.6 °F - 21.2 °F 80% 30.03 in 10.0 mi Calm Calm - N/A   Mostly Cloudy
2:13 AM 26.6 °F - 23.0 °F 86% 30.02 in 10.0 mi Calm Calm - N/A   Overcast
2:33 AM 26.6 °F 22.6 °F 21.2 °F 80% 30.02 in 10.0 mi WNW 3.5 mph - N/A   Scattered Clouds
2:54 AM 28.4 °F - 23.0 °F 80% 30.02 in 10.0 mi Calm Calm - N/A   Scattered Clouds
3:13 AM 28.4 °F 24.6 °F 21.2 °F 74% 30.02 in 10.0 mi WNW 3.5 mph - N/A   Mostly Cloudy
3:33 AM 26.6 °F 22.6 °F 21.2 °F 80% 30.01 in 10.0 mi WNW 3.5 mph - N/A   Mostly Cloudy
3:53 AM 28.4 °F 23.3 °F 21.2 °F 74% 30.01 in 10.0 mi NW 4.6 mph - N/A   Scattered Clouds
4:14 AM 28.4 °F 24.6 °F 21.2 °F 74% 30.01 in 10.0 mi NW 3.5 mph - N/A   Scattered Clouds
4:34 AM 26.6 °F 22.6 °F 21.2 °F 80% 30.01 in 10.0 mi NNW 3.5 mph - N/A   Mostly Cloudy
4:53 AM 26.6 °F 22.6 °F 21.2 °F 80% 30.01 in 10.0 mi NW 3.5 mph - N/A   Mostly Cloudy
5:14 AM 28.4 °F 24.6 °F 21.2 °F 74% 30.00 in 10.0 mi WNW 3.5 mph - N/A   Mostly Cloudy
5:33 AM 28.4 °F 23.3 °F 21.2 °F 74% 30.00 in 10.0 mi North 4.6 mph - N/A   Overcast
5:54 AM 26.6 °F 21.2 °F 21.2 °F 80% 30.00 in 10.0 mi NNW 4.6 mph - N/A   Overcast
6:14 AM 30.2 °F 25.4 °F 21.2 °F 69% 30.00 in 10.0 mi NW 4.6 mph - N/A   Mostly Cloudy
6:32 AM 30.2 °F 25.4 °F 21.2 °F 69% 30.00 in 10.0 mi NNW 4.6 mph - N/A   Overcast
6:53 AM 32.0 °F 28.7 °F 23.0 °F 69% 30.00 in 10.0 mi NNW 3.5 mph - N/A   Overcast
7:14 AM 32.0 °F 28.7 °F 23.0 °F 69% 30.00 in 10.0 mi North 3.5 mph - N/A   Overcast
7:33 AM 33.8 °F 28.6 °F 21.2 °F 60% 30.00 in 10.0 mi NNW 5.8 mph - N/A   Overcast
7:53 AM 35.6 °F 30.7 °F 21.2 °F 56% 30.00 in 10.0 mi NNW 5.8 mph - N/A   Overcast
8:14 AM 37.4 °F 34.9 °F 21.2 °F 52% 30.00 in 10.0 mi North 3.5 mph - N/A   Overcast
8:33 AM 37.4 °F 33.8 °F 19.4 °F 48% 30.00 in 10.0 mi NNW 4.6 mph - N/A   Mostly Cloudy
8:54 AM 41.0 °F 36.4 °F 19.4 °F 42% 30.00 in 10.0 mi North 6.9 mph - N/A   Mostly Cloudy
9:13 AM 41.0 °F 35.8 °F 17.6 °F 39% 30.00 in 10.0 mi NNW 8.1 mph - N/A   Scattered Clouds
9:33 AM 41.0 °F 34.3 °F 15.8 °F 36% 29.99 in 10.0 mi NNW 11.5 mph - N/A   Scattered Clouds
9:54 AM 39.2 °F 33.0 °F 15.8 °F 39% 29.99 in 10.0 mi NNW 9.2 mph - N/A   Scattered Clouds
10:13 AM 41.0 °F 36.4 °F 17.6 °F 39% 29.99 in 10.0 mi NW 6.9 mph - N/A   Scattered Clouds
10:33 AM 39.2 °F 35.9 °F 17.6 °F 42% 29.99 in 10.0 mi NNW 4.6 mph - N/A   Scattered Clouds
10:54 AM 39.2 °F 35.9 °F 17.6 °F 42% 29.99 in 10.0 mi WNW 4.6 mph - N/A   Mostly Cloudy
11:13 AM 41.0 °F 35.8 °F 17.6 °F 39% 29.99 in 10.0 mi NW 8.1 mph - N/A   Mostly Cloudy
11:33 AM 41.0 °F 37.1 °F 17.6 °F 39% 29.98 in 10.0 mi NNW 5.8 mph - N/A   Scattered Clouds
11:54 AM 41.0 °F 34.7 °F 17.6 °F 39% 29.98 in 10.0 mi North 10.4 mph - N/A   Scattered Clouds
12:13 PM 44.6 °F 43.1 °F 17.6 °F 34% 29.98 in 10.0 mi WNW 3.5 mph - N/A   Scattered Clouds
12:34 PM 42.8 °F 39.3 °F 19.4 °F 39% 29.98 in 10.0 mi NW 5.8 mph - N/A   Scattered Clouds
12:53 PM 42.8 °F 37.5 °F 17.6 °F 36% 29.98 in 10.0 mi NNW 9.2 mph - N/A   Scattered Clouds
1:14 PM 44.6 °F 39.7 °F 19.4 °F 37% 29.98 in 10.0 mi NW 9.2 mph - N/A   Clear
1:33 PM 44.6 °F 41.4 °F 17.6 °F 34% 29.98 in 10.0 mi NW 5.8 mph - N/A   Scattered Clouds
1:53 PM 44.6 °F 40.7 °F 19.4 °F 37% 29.97 in 10.0 mi NW 6.9 mph - N/A   Scattered Clouds
2:14 PM 44.6 °F 39.2 °F 17.6 °F 34% 29.97 in 10.0 mi NNW 10.4 mph 16.1 mph N/A   Mostly Cloudy
2:33 PM 44.6 °F 39.7 °F 17.6 °F 34% 29.97 in 10.0 mi West 9.2 mph - N/A   Scattered Clouds
2:53 PM 44.6 °F 41.4 °F 17.6 °F 34% 29.97 in 10.0 mi NW 5.8 mph - N/A   Scattered Clouds
3:14 PM 44.6 °F 39.7 °F 17.6 °F 34% 29.97 in 10.0 mi NNW 9.2 mph - N/A   Mostly Cloudy
3:34 PM 44.6 °F 40.2 °F 15.8 °F 31% 29.97 in 10.0 mi West 8.1 mph - N/A   Mostly Cloudy
3:53 PM 42.8 °F 38.0 °F 19.4 °F 39% 29.97 in 10.0 mi North 8.1 mph - N/A   Scattered Clouds
4:13 PM 42.8 °F 40.1 °F 21.2 °F 42% 29.97 in 10.0 mi South 4.6 mph - N/A   Scattered Clouds
4:34 PM 41.0 °F 38.0 °F 19.4 °F 42% 29.98 in 10.0 mi South 4.6 mph - N/A   Mostly Cloudy
4:53 PM 41.0 °F 36.4 °F 21.2 °F 45% 29.98 in 10.0 mi South 6.9 mph - N/A   Mostly Cloudy
5:13 PM 39.2 °F 35.0 °F 19.4 °F 45% 29.98 in 10.0 mi South 5.8 mph - N/A   Mostly Cloudy
5:34 PM 41.0 °F 35.8 °F 19.4 °F 42% 29.97 in 10.0 mi South 8.1 mph - N/A   Scattered Clouds
5:53 PM 39.2 °F 34.2 °F 19.4 °F 45% 29.98 in 10.0 mi South 6.9 mph - N/A   Scattered Clouds
6:13 PM 41.0 °F 37.1 °F 19.4 °F 42% 29.98 in 10.0 mi South 5.8 mph - N/A   Scattered Clouds
6:34 PM 41.0 °F 35.2 °F 19.4 °F 42% 29.98 in 10.0 mi South 9.2 mph - N/A   Scattered Clouds
6:53 PM 39.2 °F 33.6 °F 17.6 °F 42% 29.98 in 10.0 mi SSW 8.1 mph - N/A   Mostly Cloudy
7:13 PM 39.2 °F 35.0 °F 17.6 °F 42% 29.98 in 10.0 mi South 5.8 mph - N/A   Mostly Cloudy
7:33 PM 39.2 °F 35.0 °F 17.6 °F 42% 29.98 in 10.0 mi South 5.8 mph - N/A   Mostly Cloudy
7:54 PM 37.4 °F 33.8 °F 17.6 °F 45% 29.98 in 10.0 mi South 4.6 mph - N/A   Scattered Clouds
8:14 PM 37.4 °F 33.8 °F 17.6 °F 45% 29.98 in 10.0 mi South 4.6 mph - N/A   Clear
8:33 PM 35.6 °F 32.8 °F 17.6 °F 48% 29.98 in 10.0 mi South 3.5 mph - N/A   Scattered Clouds
8:53 PM 33.8 °F - 17.6 °F 52% 29.98 in 10.0 mi Calm Calm - N/A   Clear
9:14 PM 32.0 °F 28.7 °F 17.6 °F 55% 29.98 in 10.0 mi SSW 3.5 mph - N/A   Clear
9:33 PM 32.0 °F 28.7 °F 17.6 °F 55% 29.98 in 10.0 mi SSW 3.5 mph - N/A   Clear
9:54 PM 33.8 °F 30.8 °F 17.6 °F 52% 29.98 in 10.0 mi SW 3.5 mph - N/A   Clear
10:13 PM 33.8 °F 30.8 °F 17.6 °F 52% 29.98 in 10.0 mi SW 3.5 mph - N/A   Clear
10:34 PM 32.0 °F 28.7 °F 17.6 °F 55% 29.98 in 10.0 mi SW 3.5 mph - N/A   Clear
10:54 PM 33.8 °F 29.6 °F 15.8 °F 48% 29.97 in 10.0 mi SW 4.6 mph - N/A   Clear
11:13 PM 32.0 °F 28.7 °F 15.8 °F 51% 29.97 in 10.0 mi SW 3.5 mph - N/A   Clear
11:34 PM 33.8 °F 30.8 °F 15.8 °F 48% 29.97 in 10.0 mi WSW 3.5 mph - N/A   Clear
11:53 PM 33.8 °F 30.8 °F 15.8 °F 48% 29.96 in 10.0 mi WSW 3.5 mph - N/A   Clear